Bookmark and Share
Track history (hours):
 

Marcel

Last reported at 2014-Apr-16 05:17 UTC. Time now 2014-Apr-20 16:03 UTC.
Position N 43°46' W 005°59'.

Length 88 m; draft 5.3 m.

Type: Cargo ship. MMSI: 205439000.

NotesDate/timePositionNaut miles runAvg speedWind from/ knotsBaromVisibWave heightAir tempDewpointWater temp
2014-Apr-16 05:17N 43°46' W 005°59'810.1
2014-Apr-16 04:31N 43°46' W 005°48'13 9.9
2014-Apr-16 03:12N 43°44' W 005°30'7 9.7
2014-Apr-16 02:28N 43°43' W 005°20'  
2014-Apr-10 00:08N 43°43' W 005°27'5 8.5
2014-Apr-09 23:31N 43°44' W 005°34'  
2014-Apr-07 09:05N 39°03' W 009°48'16 8.3
2014-Apr-07 07:06N 38°47' W 009°50'13 8.2
2014-Apr-07 05:33N 38°34' W 009°47'9 8.1
2014-Apr-07 04:26N 38°25' W 009°44'7 8.0
2014-Apr-07 03:33N 38°18' W 009°42'9 8.0
2014-Apr-07 02:28N 38°10' W 009°40'7 8.2
2014-Apr-07 01:33N 38°03' W 009°38'8 8.4
2014-Apr-07 00:33N 37°54' W 009°36'8 8.2
2014-Apr-06 23:33N 37°46' W 009°33'8 8.0
2014-Apr-06 22:33N 37°39' W 009°31'8 8.0
2014-Apr-06 21:32N 37°31' W 009°29'8 8.0
2014-Apr-06 20:29N 37°22' W 009°26'9 8.1
2014-Apr-06 19:23N 37°14' W 009°24'7 7.9
2014-Apr-06 18:29N 37°07' W 009°22'22 7.5
2014-Apr-06 15:32N 36°47' W 009°10'8 7.6
2014-Apr-06 14:33N 36°42' W 009°03'  

Dump ship's entire track history

sailing weather and tide predictions

Marcel — ONDP — position and weather